This is the latest recevied weather packets stored in our database for station/object OK2ZA-6. If no packets are shown the sender has not sent any weather packets the latest 10 day(s).
| Time | Temp. | Humidity | Pressure | Rain* | Wind** | Luminosity | Snow |
|---|---|---|---|---|---|---|---|
| 1788520204 | 26.67° C | 48% | 1016.8 hPa | 0 mm | - | - | - |
| 1788519605 | 27.22° C | 47% | 1016.8 hPa | 0 mm | - | - | - |
| 1788519004 | 26.67° C | 48% | 1016.8 hPa | 0 mm | - | - | - |
| 1788518404 | 26.11° C | 49% | 1017.1 hPa | 0 mm | - | - | - |
| 1788517804 | 26.11° C | 49% | 1017 hPa | 0 mm | - | - | - |
| 1788517204 | 26.11° C | 49% | 1017.1 hPa | 0 mm | - | - | - |
| 1788516604 | 25.56° C | 52% | 1017.4 hPa | 0 mm | - | - | - |
| 1788516003 | 25° C | 53% | 1017.5 hPa | 0 mm | - | - | - |
| 1788515404 | 25° C | 53% | 1017.7 hPa | 0 mm | - | - | - |
| 1788514803 | 25° C | 54% | 1017.8 hPa | 0 mm | - | - | - |
| 1788514204 | 25° C | 54% | 1018.1 hPa | 0 mm | - | - | - |
| 1788513603 | 24.44° C | 56% | 1018.2 hPa | 0 mm | - | - | - |
| 1788513004 | 24.44° C | 55% | 1018.3 hPa | 0 mm | - | - | - |
| 1788512404 | 23.89° C | 57% | 1018.4 hPa | 0 mm | - | - | - |
| 1788511803 | 23.33° C | 57% | 1018.4 hPa | 0 mm | - | - | - |
| 1788511204 | 23.33° C | 58% | 1018.6 hPa | 0 mm | - | - | - |
| 1788510604 | 23.89° C | 56% | 1018.4 hPa | 0 mm | - | - | - |
| 1788510004 | 23.33° C | 57% | 1018.4 hPa | 0 mm | - | - | - |
| 1788509404 | 23.33° C | 58% | 1018.5 hPa | 0 mm | - | - | - |
| 1788508804 | 22.78° C | 60% | 1018.6 hPa | 0 mm | - | - | - |
| 1788508204 | 22.22° C | 62% | 1018.6 hPa | 0 mm | - | - | - |
| 1788507604 | 22.22° C | 63% | 1018.7 hPa | 0 mm | - | - | - |
| 1788507004 | 22.22° C | 64% | 1018.7 hPa | 0 mm | - | - | - |
| 1788506404 | 21.67° C | 64% | 1018.7 hPa | 0 mm | - | - | - |
| 1788505804 | 21.11° C | 65% | 1018.7 hPa | 0 mm | - | - | - |
* Rain latest hour (hover to see other rain measurements)
** Current wind speed in m/s (hover to see current wind gust speed)